createdAt,value
2022-09-26T00:00:29.036Z,11.02
2022-09-26T00:01:29.093Z,11.02
2022-09-26T00:02:29.063Z,11.00
2022-09-26T00:03:28.968Z,10.99
2022-09-26T00:04:32.548Z,10.97
2022-09-26T00:05:28.960Z,10.99
2022-09-26T00:06:28.951Z,10.97
2022-09-26T00:07:28.934Z,10.99
2022-09-26T00:08:28.934Z,10.99
2022-09-26T00:09:28.912Z,11.02
2022-09-26T00:10:28.903Z,11.02
2022-09-26T00:11:28.914Z,11.02
2022-09-26T00:12:28.879Z,11.00
2022-09-26T00:13:28.861Z,11.00
2022-09-26T00:14:31.864Z,11.00
2022-09-26T00:15:28.863Z,11.02
2022-09-26T00:16:29.005Z,11.04
2022-09-26T00:17:28.830Z,11.05
2022-09-26T00:18:28.811Z,11.05
2022-09-26T00:19:28.805Z,11.04
2022-09-26T00:20:28.829Z,11.05
2022-09-26T00:21:28.790Z,11.05
2022-09-26T00:22:28.774Z,11.05
2022-09-26T00:23:28.758Z,11.05
2022-09-26T00:24:28.743Z,11.05
2022-09-26T00:25:28.734Z,11.07
2022-09-26T00:26:28.740Z,11.07
2022-09-26T00:27:28.715Z,11.07
2022-09-26T00:28:28.706Z,11.07
2022-09-26T00:29:31.696Z,11.05
2022-09-26T00:30:28.766Z,11.04
2022-09-26T00:31:28.709Z,11.05
2022-09-26T00:32:28.674Z,11.07
2022-09-26T00:33:28.655Z,11.05
2022-09-26T00:34:28.647Z,11.05
2022-09-26T00:35:28.637Z,11.05
2022-09-26T00:36:37.630Z,11.07
2022-09-26T00:37:28.611Z,11.05
2022-09-26T00:38:28.625Z,11.05
2022-09-26T00:39:28.602Z,11.02
2022-09-26T00:40:28.614Z,11.00
2022-09-26T00:41:28.574Z,11.02
2022-09-26T00:42:28.662Z,11.02
2022-09-26T00:43:28.551Z,10.99
2022-09-26T00:44:31.544Z,10.96
2022-09-26T00:45:28.556Z,10.94
2022-09-26T00:46:28.571Z,10.93
2022-09-26T00:47:28.508Z,10.92
2022-09-26T00:48:28.498Z,10.93
2022-09-26T00:49:28.493Z,10.90
2022-09-26T00:50:28.483Z,10.90
2022-09-26T00:51:28.509Z,10.92
2022-09-26T00:52:28.460Z,10.92
2022-09-26T00:53:28.473Z,10.90
2022-09-26T00:54:28.444Z,10.92
2022-09-26T00:55:28.432Z,10.92
2022-09-26T00:56:28.420Z,10.94
2022-09-26T00:57:28.411Z,10.94
2022-09-26T00:58:28.394Z,10.94
2022-09-26T00:59:31.421Z,10.96
2022-09-26T01:00:28.389Z,10.94
2022-09-26T01:01:28.504Z,10.94
2022-09-26T01:02:28.519Z,10.94
2022-09-26T01:03:28.358Z,10.93
2022-09-26T01:04:28.344Z,10.93
2022-09-26T01:05:28.334Z,10.93
2022-09-26T01:06:28.314Z,10.94
2022-09-26T01:07:28.330Z,10.93
2022-09-26T01:08:28.299Z,10.90
2022-09-26T01:09:28.291Z,10.90
2022-09-26T01:10:28.267Z,10.87
2022-09-26T01:11:28.258Z,10.89
2022-09-26T01:12:28.251Z,10.87
2022-09-26T01:13:28.237Z,10.87
2022-09-26T01:14:31.227Z,10.87
2022-09-26T01:15:28.243Z,10.89
2022-09-26T01:16:28.293Z,10.87
2022-09-26T01:17:28.196Z,10.89
2022-09-26T01:18:28.221Z,10.87
2022-09-26T01:19:28.183Z,10.86
2022-09-26T01:20:28.167Z,10.86
2022-09-26T01:21:28.198Z,10.89
2022-09-26T01:22:28.145Z,10.87
2022-09-26T01:23:28.141Z,10.89
2022-09-26T01:24:28.120Z,10.89
2022-09-26T01:25:28.120Z,10.92
2022-09-26T01:26:28.108Z,10.92
2022-09-26T01:27:28.090Z,10.90
2022-09-26T01:28:28.076Z,10.92
2022-09-26T01:29:31.070Z,10.93
2022-09-26T01:30:28.177Z,10.94
2022-09-26T01:31:28.192Z,10.94
2022-09-26T01:32:28.031Z,10.93
2022-09-26T01:33:28.032Z,10.94
2022-09-26T01:34:28.028Z,10.93
2022-09-26T01:35:28.018Z,10.94
2022-09-26T01:36:28.002Z,10.96
2022-09-26T01:37:28.000Z,10.96
2022-09-26T01:38:27.984Z,10.97
2022-09-26T01:39:27.981Z,10.99
2022-09-26T01:40:28.019Z,11.00
2022-09-26T01:41:27.943Z,10.99
2022-09-26T01:42:27.935Z,10.97
2022-09-26T01:43:27.935Z,10.97
2022-09-26T01:44:30.917Z,10.97
2022-09-26T01:45:27.924Z,10.97
2022-09-26T01:46:27.949Z,10.96
2022-09-26T01:47:28.062Z,10.96
2022-09-26T01:48:27.879Z,10.96
2022-09-26T01:49:27.865Z,10.99
2022-09-26T01:50:27.855Z,10.97
2022-09-26T01:51:27.849Z,10.99
2022-09-26T01:52:27.916Z,10.99
2022-09-26T01:53:27.823Z,10.99
2022-09-26T01:54:27.812Z,10.97
2022-09-26T01:55:27.808Z,10.96
2022-09-26T01:56:27.785Z,10.94
2022-09-26T01:57:27.786Z,10.96
2022-09-26T01:58:27.766Z,10.96
2022-09-26T01:59:30.763Z,10.96
2022-09-26T02:00:27.771Z,10.97
2022-09-26T02:01:27.828Z,10.96
2022-09-26T02:02:27.769Z,10.94
2022-09-26T02:03:27.769Z,10.96
2022-09-26T02:04:27.707Z,10.96
2022-09-26T02:05:27.699Z,10.94
2022-09-26T02:06:27.692Z,10.93
2022-09-26T02:07:27.680Z,10.94
2022-09-26T02:08:27.658Z,10.96
2022-09-26T02:09:27.666Z,10.93
2022-09-26T02:10:27.654Z,10.96
2022-09-26T02:11:27.643Z,10.93
2022-09-26T02:12:27.621Z,10.93
2022-09-26T02:13:27.615Z,10.93
2022-09-26T02:14:30.704Z,10.93
2022-09-26T02:15:27.609Z,10.93
2022-09-26T02:16:27.665Z,10.96
2022-09-26T02:17:27.573Z,10.96
2022-09-26T02:18:27.563Z,10.96
2022-09-26T02:19:27.574Z,10.97
2022-09-26T02:20:27.553Z,11.00
2022-09-26T02:21:27.534Z,11.00
2022-09-26T02:22:27.515Z,11.00
2022-09-26T02:23:27.515Z,11.00
2022-09-26T02:24:27.502Z,10.99
2022-09-26T02:25:27.586Z,10.99
2022-09-26T02:26:27.486Z,11.00
2022-09-26T02:27:27.471Z,10.97
2022-09-26T02:28:27.465Z,10.99
2022-09-26T02:29:30.445Z,10.99
2022-09-26T02:30:27.497Z,10.97
2022-09-26T02:31:27.474Z,10.97
2022-09-26T02:32:27.426Z,10.99
2022-09-26T02:33:27.416Z,10.99
2022-09-26T02:34:27.403Z,11.00
2022-09-26T02:35:27.379Z,10.99
2022-09-26T02:36:27.385Z,11.00
2022-09-26T02:37:27.377Z,11.02
2022-09-26T02:38:27.349Z,11.02
2022-09-26T02:39:27.349Z,11.02
2022-09-26T02:40:27.373Z,11.02
2022-09-26T02:41:27.359Z,11.00
2022-09-26T02:42:27.309Z,11.02
2022-09-26T02:43:27.323Z,10.99
2022-09-26T02:44:30.290Z,11.02
2022-09-26T02:45:27.362Z,10.99
2022-09-26T02:46:27.279Z,10.99
2022-09-26T02:47:27.259Z,10.99
2022-09-26T02:48:27.252Z,10.99
2022-09-26T02:49:27.252Z,10.97
2022-09-26T02:50:27.233Z,10.99
2022-09-26T02:51:27.322Z,10.99
2022-09-26T02:52:27.216Z,10.99
2022-09-26T02:53:27.191Z,10.99
2022-09-26T02:54:27.191Z,11.00
2022-09-26T02:55:27.191Z,11.00
2022-09-26T02:56:27.161Z,10.97
2022-09-26T02:57:27.163Z,10.97
2022-09-26T02:58:27.151Z,10.99
2022-09-26T02:59:30.134Z,11.00
2022-09-26T03:00:27.145Z,11.00
2022-09-26T03:01:27.155Z,11.00
2022-09-26T03:02:27.134Z,11.04
2022-09-26T03:03:27.134Z,11.05
2022-09-26T03:04:27.157Z,11.07
2022-09-26T03:05:27.075Z,11.05
2022-09-26T03:06:27.064Z,11.07
2022-09-26T03:07:27.055Z,11.05
2022-09-26T03:08:27.047Z,11.00
2022-09-26T03:09:27.045Z,11.02
2022-09-26T03:10:27.026Z,11.02
2022-09-26T03:11:27.022Z,10.99
2022-09-26T03:12:27.008Z,10.99
2022-09-26T03:13:27.077Z,10.96
2022-09-26T03:14:29.981Z,10.97
2022-09-26T03:15:26.989Z,10.97
2022-09-26T03:16:26.986Z,10.96
2022-09-26T03:17:26.957Z,10.96
2022-09-26T03:18:26.975Z,10.96
2022-09-26T03:19:26.926Z,10.94
2022-09-26T03:20:26.928Z,10.96
2022-09-26T03:21:26.936Z,10.96
2022-09-26T03:22:26.899Z,10.94
2022-09-26T03:23:26.895Z,10.94
2022-09-26T03:24:26.879Z,10.96
2022-09-26T03:25:26.877Z,10.99
2022-09-26T03:26:26.891Z,10.99
2022-09-26T03:27:26.840Z,11.00
2022-09-26T03:28:26.838Z,11.02
2022-09-26T03:29:30.824Z,11.04
2022-09-26T03:30:26.840Z,11.02
2022-09-26T03:31:26.881Z,11.00
2022-09-26T03:32:26.790Z,10.97
2022-09-26T03:33:26.781Z,10.99
2022-09-26T03:34:26.773Z,10.99
2022-09-26T03:35:26.762Z,10.99
2022-09-26T03:36:26.758Z,10.99
2022-09-26T03:37:26.745Z,10.99
2022-09-26T03:38:26.765Z,10.99
2022-09-26T03:39:26.722Z,11.00
2022-09-26T03:40:26.781Z,11.02
2022-09-26T03:41:26.762Z,11.00
2022-09-26T03:42:26.698Z,11.04
2022-09-26T03:43:26.683Z,11.05
2022-09-26T03:44:29.677Z,11.07
2022-09-26T03:45:26.685Z,11.07
2022-09-26T03:46:26.687Z,11.07
2022-09-26T03:47:26.639Z,11.04
2022-09-26T03:48:26.626Z,11.02
2022-09-26T03:49:26.628Z,11.02
2022-09-26T03:50:26.609Z,11.00
2022-09-26T03:51:26.642Z,11.02
2022-09-26T03:52:26.588Z,10.99
2022-09-26T03:53:26.586Z,10.97
2022-09-26T03:54:26.604Z,10.97
2022-09-26T03:55:26.556Z,10.96
2022-09-26T03:56:26.557Z,10.96
2022-09-26T03:57:26.547Z,10.94
2022-09-26T03:58:26.525Z,10.97
2022-09-26T03:59:29.548Z,10.97
2022-09-26T04:00:26.518Z,10.99
2022-09-26T04:01:26.589Z,10.99
2022-09-26T04:02:26.571Z,11.02
2022-09-26T04:03:26.467Z,11.02
2022-09-26T04:04:26.458Z,11.02
2022-09-26T04:05:26.451Z,11.02
2022-09-26T04:06:26.440Z,11.00
2022-09-26T04:07:26.430Z,11.00
2022-09-26T04:08:26.419Z,10.99
2022-09-26T04:09:26.439Z,10.97
2022-09-26T04:10:26.399Z,11.00
2022-09-26T04:11:26.392Z,11.02
2022-09-26T04:12:26.373Z,11.02
2022-09-26T04:13:49.973Z,10.99
2022-09-26T04:14:30.554Z,11.00
2022-09-26T04:15:26.376Z,11.02
2022-09-26T04:16:26.385Z,10.99
2022-09-26T04:17:26.336Z,10.96
2022-09-26T04:18:26.312Z,10.93
2022-09-26T04:19:26.305Z,10.92
2022-09-26T04:20:26.293Z,10.90
2022-09-26T04:21:26.293Z,10.90
2022-09-26T04:22:26.281Z,10.90
2022-09-26T04:23:26.270Z,10.93
2022-09-26T04:24:26.245Z,10.90
2022-09-26T04:25:26.275Z,10.93
2022-09-26T04:26:26.232Z,10.93
2022-09-26T04:27:26.223Z,10.93
2022-09-26T04:28:26.217Z,10.93
2022-09-26T04:29:29.201Z,10.93
2022-09-26T04:30:26.206Z,10.94
2022-09-26T04:31:26.257Z,10.93
2022-09-26T04:32:26.178Z,10.94
2022-09-26T04:33:26.177Z,10.94
2022-09-26T04:34:27.491Z,10.94
2022-09-26T04:35:26.137Z,10.94
2022-09-26T04:36:26.158Z,10.94
2022-09-26T04:37:26.124Z,10.93
2022-09-26T04:38:26.120Z,10.90
2022-09-26T04:39:26.099Z,10.90
2022-09-26T04:40:26.141Z,10.89
2022-09-26T04:41:26.073Z,10.90
2022-09-26T04:42:26.082Z,10.87
2022-09-26T04:43:26.064Z,10.87
2022-09-26T04:44:29.051Z,10.89
2022-09-26T04:45:26.149Z,10.87
2022-09-26T04:46:30.412Z,10.89
2022-09-26T04:47:26.025Z,10.90
2022-09-26T04:48:26.000Z,10.90
2022-09-26T04:49:25.993Z,10.90
2022-09-26T04:50:26.035Z,10.93
2022-09-26T04:51:25.972Z,10.93
2022-09-26T04:52:25.960Z,10.92
2022-09-26T04:53:25.922Z,10.93
2022-09-26T04:54:25.980Z,10.93
2022-09-26T04:55:25.940Z,10.90
2022-09-26T04:56:25.925Z,10.93
2022-09-26T04:57:25.918Z,10.92
2022-09-26T04:58:25.910Z,10.93
2022-09-26T04:59:28.896Z,10.93
2022-09-26T05:00:25.855Z,10.92
2022-09-26T05:01:25.906Z,10.92
2022-09-26T05:02:25.903Z,10.89
2022-09-26T05:03:25.811Z,10.90
2022-09-26T05:04:27.812Z,10.89
2022-09-26T05:05:25.776Z,10.89
2022-09-26T05:06:25.766Z,10.89
2022-09-26T05:07:25.756Z,10.87
2022-09-26T05:08:25.751Z,10.89
2022-09-26T05:09:25.736Z,10.87
2022-09-26T05:10:25.835Z,10.87
2022-09-26T05:11:25.717Z,10.86
2022-09-26T05:12:25.710Z,10.86
2022-09-26T05:13:25.698Z,10.86
2022-09-26T05:14:28.686Z,10.86
2022-09-26T05:15:25.720Z,10.87
2022-09-26T05:16:25.715Z,10.87
2022-09-26T05:17:25.652Z,10.87
2022-09-26T05:18:25.645Z,10.86
2022-09-26T05:19:25.637Z,10.86
2022-09-26T05:20:25.677Z,10.87
2022-09-26T05:21:25.609Z,10.86
2022-09-26T05:22:25.597Z,10.86
2022-09-26T05:23:25.618Z,10.87
2022-09-26T05:24:25.583Z,10.87
2022-09-26T05:25:25.567Z,10.86
2022-09-26T05:26:25.551Z,10.89
2022-09-26T05:27:25.572Z,10.86
2022-09-26T05:28:25.580Z,10.87
2022-09-26T05:29:28.542Z,10.86
2022-09-26T05:30:25.546Z,10.87
2022-09-26T05:31:25.551Z,10.86
2022-09-26T05:32:25.536Z,10.86
2022-09-26T05:33:25.482Z,10.86
2022-09-26T05:34:25.481Z,10.84
2022-09-26T05:35:25.470Z,10.87
2022-09-26T05:36:25.466Z,10.87
2022-09-26T05:37:25.453Z,10.89
2022-09-26T05:38:25.444Z,10.90
2022-09-26T05:39:25.423Z,10.92
2022-09-26T05:40:25.462Z,10.93
2022-09-26T05:41:25.403Z,10.93
2022-09-26T05:42:25.393Z,10.93
2022-09-26T05:43:25.414Z,10.93
2022-09-26T05:44:28.383Z,10.94
2022-09-26T05:45:25.376Z,10.96
2022-09-26T05:46:25.412Z,10.96
2022-09-26T05:47:25.342Z,10.97
2022-09-26T05:48:25.329Z,10.96
2022-09-26T05:49:25.315Z,10.94
2022-09-26T05:50:25.320Z,10.96
2022-09-26T05:51:25.296Z,10.94
2022-09-26T05:52:25.293Z,10.96
2022-09-26T05:53:25.277Z,11.00
2022-09-26T05:54:25.339Z,11.00
2022-09-26T05:55:25.261Z,11.04
2022-09-26T05:56:25.250Z,11.05
2022-09-26T05:57:25.281Z,11.07
2022-09-26T05:58:25.240Z,11.10
2022-09-26T05:59:28.249Z,11.11
2022-09-26T06:00:25.219Z,11.10
2022-09-26T06:01:25.232Z,11.11
2022-09-26T06:02:25.219Z,11.11
2022-09-26T06:03:25.182Z,11.08
2022-09-26T06:04:25.194Z,11.10
2022-09-26T06:05:25.152Z,11.08
2022-09-26T06:06:25.144Z,11.08
2022-09-26T06:07:25.134Z,11.10
2022-09-26T06:08:25.145Z,11.12
2022-09-26T06:09:25.100Z,11.14
2022-09-26T06:10:25.105Z,11.14
2022-09-26T06:11:25.081Z,11.15
2022-09-26T06:12:25.088Z,11.17
2022-09-26T06:13:25.075Z,11.17
2022-09-26T06:14:28.055Z,11.18
2022-09-26T06:15:25.061Z,11.19
2022-09-26T06:16:25.088Z,11.22
2022-09-26T06:17:25.029Z,11.22
2022-09-26T06:18:25.006Z,11.25
2022-09-26T06:19:25.141Z,11.22
2022-09-26T06:20:25.033Z,11.25
2022-09-26T06:21:24.984Z,11.27
2022-09-26T06:22:24.975Z,11.29
2022-09-26T06:23:24.963Z,11.30
2022-09-26T06:24:24.949Z,11.32
2022-09-26T06:25:24.952Z,11.36
2022-09-26T06:26:24.961Z,11.37
2022-09-26T06:27:24.924Z,11.40
2022-09-26T06:28:24.947Z,11.43
2022-09-26T06:29:27.892Z,11.43
2022-09-26T06:30:24.936Z,11.47
2022-09-26T06:31:24.970Z,11.51
2022-09-26T06:32:24.885Z,11.50
2022-09-26T06:33:26.129Z,11.51
2022-09-26T06:34:24.867Z,11.51
2022-09-26T06:35:24.952Z,11.50
2022-09-26T06:36:24.831Z,11.50
2022-09-26T06:37:24.841Z,11.48
2022-09-26T06:38:24.814Z,11.45
2022-09-26T06:39:24.834Z,11.44
2022-09-26T06:40:24.845Z,11.40
2022-09-26T06:41:24.810Z,11.41
2022-09-26T06:42:24.781Z,11.40
2022-09-26T06:43:24.758Z,11.37
2022-09-26T06:44:27.803Z,11.37
2022-09-26T06:45:24.748Z,11.37
2022-09-26T06:46:24.777Z,11.37
2022-09-26T06:47:24.710Z,11.40
2022-09-26T06:48:24.944Z,11.44
2022-09-26T06:49:24.692Z,11.45
2022-09-26T06:50:24.690Z,11.44
2022-09-26T06:51:24.673Z,11.47
2022-09-26T06:52:24.671Z,11.52
2022-09-26T06:53:24.669Z,11.57
2022-09-26T06:54:24.646Z,11.60
2022-09-26T06:55:24.693Z,11.62
2022-09-26T06:56:24.634Z,11.65
2022-09-26T06:57:24.612Z,11.62
2022-09-26T06:58:24.605Z,11.62
2022-09-26T06:59:27.586Z,11.62
2022-09-26T07:00:24.667Z,11.62
2022-09-26T07:01:24.784Z,11.62
2022-09-26T07:02:24.607Z,11.62
2022-09-26T07:03:24.559Z,11.60
2022-09-26T07:04:24.550Z,11.62
2022-09-26T07:05:24.526Z,11.60
2022-09-26T07:06:24.547Z,11.62
2022-09-26T07:07:24.515Z,11.60
2022-09-26T07:08:43.422Z,11.60
2022-09-26T07:09:25.486Z,11.62
2022-09-26T07:10:24.622Z,11.62
2022-09-26T07:11:42.255Z,11.63
2022-09-26T07:12:25.464Z,11.65
2022-09-26T07:13:24.437Z,11.68
2022-09-26T07:14:27.429Z,11.69
2022-09-26T07:15:24.437Z,11.70
2022-09-26T07:16:24.450Z,11.73
2022-09-26T07:17:24.437Z,11.75
2022-09-26T07:18:24.398Z,11.81
2022-09-26T07:19:24.389Z,11.84
2022-09-26T07:20:24.428Z,11.91
2022-09-26T07:21:24.363Z,11.97
2022-09-26T07:22:24.459Z,12.03
2022-09-26T07:23:24.387Z,12.07
2022-09-26T07:24:24.330Z,12.12
2022-09-26T07:25:24.322Z,12.09
2022-09-26T07:26:24.321Z,12.15
2022-09-26T07:27:24.290Z,12.20
2022-09-26T07:28:24.295Z,12.25
2022-09-26T07:29:27.277Z,12.31
2022-09-26T07:30:24.379Z,12.36
2022-09-26T07:31:24.326Z,12.36
2022-09-26T07:32:24.253Z,12.39
2022-09-26T07:33:24.243Z,12.37
2022-09-26T07:34:24.344Z,12.37
2022-09-26T07:35:24.230Z,12.40
2022-09-26T07:36:24.216Z,12.42
2022-09-26T07:37:24.199Z,12.42
2022-09-26T07:38:24.190Z,12.35
2022-09-26T07:39:24.174Z,12.25
2022-09-26T07:40:24.308Z,12.21
2022-09-26T07:41:24.147Z,12.20
2022-09-26T07:42:24.145Z,12.22
2022-09-26T07:43:44.989Z,12.24
2022-09-26T07:45:29.682Z,12.22
2022-09-26T07:46:24.167Z,12.24
2022-09-26T07:47:24.109Z,12.22
2022-09-26T07:48:24.084Z,12.15
2022-09-26T07:49:24.087Z,12.15
2022-09-26T07:50:24.065Z,12.13
2022-09-26T07:51:24.055Z,12.13
2022-09-26T07:52:24.049Z,12.15
2022-09-26T07:53:24.048Z,12.13
2022-09-26T07:54:24.049Z,12.09
2022-09-26T07:55:24.008Z,12.07
2022-09-26T07:56:24.010Z,12.10
2022-09-26T07:57:23.988Z,12.06
2022-09-26T07:58:23.969Z,12.07
2022-09-26T07:59:27.020Z,12.12
2022-09-26T08:00:23.981Z,12.22
2022-09-26T08:01:24.045Z,12.50
2022-09-26T08:02:24.027Z,12.58
2022-09-26T08:03:23.952Z,12.68
2022-09-26T08:04:23.982Z,12.73
2022-09-26T08:05:23.910Z,12.83
2022-09-26T08:06:23.892Z,12.85
2022-09-26T08:07:23.892Z,12.87
2022-09-26T08:08:23.883Z,12.83
2022-09-26T08:09:23.863Z,12.83
2022-09-26T08:10:23.865Z,12.80
2022-09-26T08:11:23.842Z,12.76
2022-09-26T08:12:23.840Z,12.73
2022-09-26T08:13:23.822Z,12.72
2022-09-26T08:14:26.816Z,12.68
2022-09-26T08:15:23.942Z,12.67
2022-09-26T08:16:23.969Z,12.65
2022-09-26T08:17:23.811Z,12.65
2022-09-26T08:18:23.795Z,12.61
2022-09-26T08:19:23.763Z,12.54
2022-09-26T08:20:26.360Z,12.53
2022-09-26T08:21:23.737Z,12.54
2022-09-26T08:22:23.735Z,12.54
2022-09-26T08:23:23.723Z,12.60
2022-09-26T08:24:23.702Z,12.58
2022-09-26T08:25:23.715Z,12.57
2022-09-26T08:26:23.684Z,12.57
2022-09-26T08:27:23.674Z,12.54
2022-09-26T08:28:23.674Z,12.57
2022-09-26T08:29:26.658Z,12.60
2022-09-26T08:30:23.649Z,12.57
2022-09-26T08:31:23.718Z,12.58
2022-09-26T08:32:23.624Z,12.60
2022-09-26T08:33:23.614Z,12.60
2022-09-26T08:34:25.666Z,12.60
2022-09-26T08:35:23.777Z,12.67
2022-09-26T08:36:23.589Z,12.76
2022-09-26T08:37:23.568Z,12.83
2022-09-26T08:38:23.564Z,12.85
2022-09-26T08:39:23.550Z,12.91
2022-09-26T08:40:23.604Z,12.94
2022-09-26T08:41:23.538Z,13.03
2022-09-26T08:42:23.518Z,13.08
2022-09-26T08:43:23.512Z,13.09
2022-09-26T08:44:26.500Z,13.11
2022-09-26T08:45:23.525Z,13.16
2022-09-26T08:46:23.578Z,13.23
2022-09-26T08:47:23.483Z,13.30
2022-09-26T08:48:23.458Z,13.38
2022-09-26T08:49:23.468Z,13.42
2022-09-26T08:50:23.441Z,13.44
2022-09-26T08:51:28.884Z,13.41
2022-09-26T08:52:23.424Z,13.44
2022-09-26T08:53:23.413Z,13.44
2022-09-26T08:54:23.402Z,13.41
2022-09-26T08:55:23.397Z,13.31
2022-09-26T08:56:23.375Z,13.27
2022-09-26T08:57:23.384Z,13.25
2022-09-26T08:58:28.532Z,13.20
2022-09-26T08:59:26.346Z,13.20
2022-09-26T09:00:23.358Z,13.18
2022-09-26T09:01:23.370Z,13.12
2022-09-26T09:02:23.446Z,13.16
2022-09-26T09:03:23.305Z,13.19
2022-09-26T09:04:23.293Z,13.19
2022-09-26T09:05:23.300Z,13.12
2022-09-26T09:06:23.296Z,13.08
2022-09-26T09:07:23.267Z,13.01
2022-09-26T09:08:23.254Z,13.00
2022-09-26T09:09:23.250Z,12.95
2022-09-26T09:10:23.246Z,12.95
2022-09-26T09:11:23.241Z,12.97
2022-09-26T09:12:25.466Z,12.98
2022-09-26T09:13:23.198Z,13.01
2022-09-26T09:14:26.189Z,13.04
2022-09-26T09:15:26.126Z,13.09
2022-09-26T09:16:23.233Z,13.13
2022-09-26T09:17:23.160Z,13.16
2022-09-26T09:18:23.151Z,13.19
2022-09-26T09:19:23.178Z,13.22
2022-09-26T09:20:23.132Z,13.25
2022-09-26T09:21:23.120Z,13.31
2022-09-26T09:22:23.102Z,13.35
2022-09-26T09:23:23.105Z,13.31
2022-09-26T09:24:23.221Z,13.20
2022-09-26T09:25:23.077Z,13.15
2022-09-26T09:28:24.073Z,13.12
2022-09-26T09:29:26.031Z,13.16
2022-09-26T09:30:23.054Z,13.23
2022-09-26T09:31:23.031Z,13.33
2022-09-26T09:32:23.004Z,13.60
2022-09-26T09:33:23.022Z,13.75
2022-09-26T09:34:22.976Z,13.87
2022-09-26T09:35:22.991Z,14.08
2022-09-26T09:36:22.957Z,14.10
2022-09-26T09:37:22.952Z,14.11
2022-09-26T09:38:22.940Z,14.11
2022-09-26T09:39:23.095Z,14.05
2022-09-26T09:40:22.958Z,13.86
2022-09-26T09:41:22.894Z,13.81
2022-09-26T09:42:22.927Z,13.81
2022-09-26T09:43:22.885Z,13.89
2022-09-26T09:44:25.904Z,13.95
2022-09-26T09:46:22.904Z,14.08
2022-09-26T09:47:22.837Z,14.12
2022-09-26T09:48:22.828Z,14.11
2022-09-26T09:49:22.928Z,14.08
2022-09-26T09:50:22.848Z,14.14
2022-09-26T09:51:22.803Z,14.18
2022-09-26T09:52:22.778Z,14.28
2022-09-26T09:53:22.770Z,14.25
2022-09-26T09:54:22.759Z,14.22
2022-09-26T09:55:22.751Z,14.25
2022-09-26T09:56:22.741Z,14.28
2022-09-26T09:57:22.730Z,14.30
2022-09-26T09:58:22.716Z,14.28
2022-09-26T09:59:25.716Z,14.25
2022-09-26T10:00:22.755Z,14.22
2022-09-26T10:01:22.692Z,14.18
2022-09-26T10:02:22.746Z,14.18
2022-09-26T10:03:22.775Z,14.15
2022-09-26T10:04:22.659Z,14.23
2022-09-26T10:05:22.640Z,14.20
2022-09-26T10:06:44.273Z,14.45
2022-09-26T10:07:23.624Z,14.82
2022-09-26T10:08:22.638Z,14.84
2022-09-26T10:09:35.668Z,14.84
2022-09-26T10:10:22.643Z,14.88
2022-09-26T10:11:22.573Z,14.88
2022-09-26T10:12:22.564Z,14.81
2022-09-26T10:13:22.553Z,14.70
2022-09-26T10:14:25.545Z,14.65
2022-09-26T10:15:22.544Z,14.62
2022-09-26T10:16:22.599Z,14.59
2022-09-26T10:17:22.513Z,14.51
2022-09-26T10:18:25.714Z,14.47
2022-09-26T10:19:22.491Z,14.43
2022-09-26T10:20:22.499Z,14.37
2022-09-26T10:21:22.513Z,14.26
2022-09-26T10:22:22.483Z,14.20
2022-09-26T10:23:22.490Z,14.14
2022-09-26T10:24:22.495Z,14.14
2022-09-26T10:25:22.503Z,14.11
2022-09-26T10:26:22.446Z,14.14
2022-09-26T10:27:22.517Z,14.14
2022-09-26T10:28:22.509Z,14.08
2022-09-26T10:29:25.381Z,14.00
2022-09-26T10:30:22.391Z,13.93
2022-09-26T10:31:22.435Z,13.89
2022-09-26T10:32:22.352Z,13.89
2022-09-26T10:33:22.372Z,13.81
2022-09-26T10:34:22.335Z,13.77
2022-09-26T10:35:22.322Z,13.74
2022-09-26T10:36:22.313Z,13.74
2022-09-26T10:37:22.297Z,13.77
2022-09-26T10:38:22.286Z,13.74
2022-09-26T10:39:22.271Z,13.71
2022-09-26T10:40:22.308Z,13.72
2022-09-26T10:41:22.256Z,13.71
2022-09-26T10:42:22.248Z,13.71
2022-09-26T10:43:22.223Z,13.75
2022-09-26T10:44:25.241Z,13.74
2022-09-26T10:45:22.221Z,13.75
2022-09-26T10:46:22.294Z,13.72
2022-09-26T10:47:22.198Z,13.74
2022-09-26T10:48:22.237Z,13.72
2022-09-26T10:49:22.174Z,13.74
2022-09-26T10:50:22.179Z,13.72
2022-09-26T10:51:22.196Z,13.74
2022-09-26T10:52:22.144Z,13.75
2022-09-26T10:53:22.126Z,13.78
2022-09-26T10:54:22.132Z,13.72
2022-09-26T10:55:22.158Z,13.68
2022-09-26T10:56:22.090Z,13.62
2022-09-26T10:57:22.081Z,13.59
2022-09-26T10:58:22.245Z,13.60
2022-09-26T10:59:25.070Z,13.60
2022-09-26T11:00:22.117Z,13.60
2022-09-26T11:01:22.177Z,13.59
2022-09-26T11:02:22.027Z,13.60
2022-09-26T11:03:22.082Z,13.62
2022-09-26T11:04:22.004Z,13.63
2022-09-26T11:05:21.989Z,13.56
2022-09-26T11:06:24.016Z,13.54
2022-09-26T11:07:21.978Z,13.54
2022-09-26T11:08:21.951Z,13.52
2022-09-26T11:09:21.964Z,13.52
2022-09-26T11:10:21.941Z,13.54
2022-09-26T11:11:21.929Z,13.56
2022-09-26T11:12:21.953Z,13.59
2022-09-26T11:13:21.899Z,13.59
2022-09-26T11:14:28.281Z,13.65
2022-09-26T11:15:21.901Z,13.68
2022-09-26T11:16:21.937Z,13.75
2022-09-26T11:17:21.894Z,13.75
2022-09-26T11:18:21.853Z,13.79
2022-09-26T11:19:21.837Z,13.89
2022-09-26T11:20:21.829Z,13.96
2022-09-26T11:21:28.929Z,14.03
2022-09-26T11:22:21.871Z,14.07
2022-09-26T11:23:21.792Z,14.12
2022-09-26T11:24:21.781Z,14.15
2022-09-26T11:25:21.776Z,14.32
2022-09-26T11:26:21.765Z,14.66
2022-09-26T11:27:21.818Z,14.99
2022-09-26T11:28:21.757Z,15.14
2022-09-26T11:29:24.725Z,15.28
2022-09-26T11:30:21.735Z,15.39
2022-09-26T11:32:21.685Z,15.75
2022-09-26T11:33:21.679Z,15.73
2022-09-26T11:34:21.697Z,15.55
2022-09-26T11:35:21.795Z,15.42
2022-09-26T11:36:21.652Z,15.36
2022-09-26T11:37:21.641Z,15.36
2022-09-26T11:38:28.750Z,15.29
2022-09-26T11:40:48.608Z,15.27
2022-09-26T11:41:46.573Z,15.33
2022-09-26T11:42:46.568Z,15.27
2022-09-26T11:43:46.593Z,15.46
2022-09-26T11:44:46.557Z,15.80
2022-09-26T11:47:57.110Z,16.51
2022-09-26T11:48:57.181Z,16.58
2022-09-26T11:49:57.081Z,16.43
2022-09-26T11:51:08.096Z,16.05
2022-09-26T11:51:57.059Z,15.97
2022-09-26T11:54:23.946Z,16.35
2022-09-26T11:55:21.949Z,16.29
2022-09-26T11:56:21.936Z,16.32
2022-09-26T11:57:21.919Z,16.42
2022-09-26T11:58:33.129Z,16.49
2022-09-26T11:59:21.899Z,16.58
2022-09-26T12:05:26.680Z,16.84
2022-09-26T12:08:37.347Z,17.30
2022-09-26T12:12:10.812Z,17.23
2022-09-26T12:13:24.410Z,16.99
2022-09-26T12:14:19.066Z,16.71
2022-09-26T12:18:22.562Z,15.88
2022-09-26T12:24:57.038Z,16.49
2022-09-26T12:25:56.964Z,16.31
2022-09-26T12:26:56.947Z,16.36
2022-09-26T12:30:07.013Z,16.79
2022-09-26T12:34:03.826Z,16.57
2022-09-26T12:38:20.988Z,16.50
2022-09-26T12:40:59.590Z,16.68
2022-09-26T12:43:21.927Z,16.64
2022-09-26T12:49:04.295Z,16.36
2022-09-26T12:56:12.487Z,15.86
2022-09-26T12:58:47.331Z,15.76
2022-09-26T13:09:03.609Z,14.44
2022-09-26T13:28:21.019Z,14.68
2022-09-26T13:34:27.960Z,14.81
2022-09-26T13:40:05.810Z,14.79
2022-09-26T13:53:04.626Z,14.60
2022-09-26T13:56:40.344Z,14.54
2022-09-26T13:59:05.158Z,14.68
2022-09-26T14:00:04.849Z,14.68
2022-09-26T14:01:04.704Z,14.65
2022-09-26T14:02:04.869Z,14.69
2022-09-26T14:03:05.026Z,14.73
2022-09-26T14:04:15.314Z,14.81
2022-09-26T14:05:04.648Z,14.82
2022-09-26T14:07:36.835Z,14.85
2022-09-26T14:08:46.203Z,14.85
2022-09-26T14:09:36.903Z,14.88
2022-09-26T14:10:36.672Z,14.89
2022-09-26T14:11:36.660Z,14.91
2022-09-26T14:12:36.612Z,14.84
2022-09-26T14:13:36.596Z,14.77
2022-09-26T14:14:36.607Z,14.72
2022-09-26T14:15:36.612Z,14.72
2022-09-26T14:16:36.616Z,14.72
2022-09-26T14:17:36.580Z,14.73
2022-09-26T14:18:36.559Z,14.73
2022-09-26T14:19:36.559Z,14.72
2022-09-26T14:20:39.560Z,14.69
2022-09-26T14:21:36.545Z,14.69
2022-09-26T14:22:36.548Z,14.70
2022-09-26T14:23:36.529Z,14.70
2022-09-26T14:24:36.489Z,14.68
2022-09-26T14:25:36.641Z,14.68
2022-09-26T14:26:36.476Z,14.68
2022-09-26T14:27:36.520Z,14.69
2022-09-26T14:28:36.451Z,14.70
2022-09-26T14:29:36.477Z,14.66
2022-09-26T14:30:36.593Z,14.59
2022-09-26T14:32:36.407Z,14.59
2022-09-26T14:33:36.403Z,14.59
2022-09-26T14:34:36.404Z,14.59
2022-09-26T14:35:39.519Z,14.59
2022-09-26T14:36:36.380Z,14.51
2022-09-26T14:37:36.328Z,14.48
2022-09-26T14:38:36.339Z,14.47
2022-09-26T14:39:36.327Z,14.48
2022-09-26T14:40:36.457Z,14.44